HBCYP EDDP-LSZA
Flight info
| Callsign | HBCYP |
|---|---|
| Flight time | N/A |
| Altitude | 32000 |
| Route | EDDP/26R GOLAT T202 TABAT Q244 KULOK Z715 ANELA DCT RAVED DCT ODINA |
| Aircraft | C700/M-SBDGHM1RWXY/LB2 |
Departure
| Time | N/A |
|---|---|
| Airport | Leipzig/Halle Airport (EDDP) |
Arrival
| Time | 2026-04-23 18:43 |
|---|---|
| Airport | Lugano Airport (LSZA) |
| Time | Latitude | Longitude | Altitude | Speed | Heading |
|---|---|---|---|---|---|
| 2026-04-23 18:19 | 47.51760 | 9.53491 | 32250 ft | 515 kts | 199° |
| 2026-04-23 18:19 | 47.48465 | 9.51403 | 32250 ft | 517 kts | 199° |
| 2026-04-23 18:20 | 47.41826 | 9.47199 | 32246 ft | 518 kts | 199° |
| 2026-04-23 18:20 | 47.35216 | 9.43040 | 32250 ft | 516 kts | 199° |
| 2026-04-23 18:21 | 47.28605 | 9.38882 | 32263 ft | 517 kts | 199° |
| 2026-04-23 18:21 | 47.21968 | 9.34728 | 32256 ft | 519 kts | 200° |
| 2026-04-23 18:22 | 47.15340 | 9.30583 | 32269 ft | 517 kts | 199° |
| 2026-04-23 18:22 | 47.08750 | 9.26478 | 32264 ft | 519 kts | 199° |
| 2026-04-23 18:23 | 46.98768 | 9.20277 | 32260 ft | 518 kts | 199° |
| 2026-04-23 18:24 | 46.88804 | 9.14115 | 32249 ft | 518 kts | 199° |
| 2026-04-23 18:25 | 46.78839 | 9.07976 | 32242 ft | 517 kts | 199° |
| 2026-04-23 18:25 | 46.72212 | 9.03905 | 32235 ft | 516 kts | 200° |
| 2026-04-23 18:26 | 46.65633 | 8.99875 | 32227 ft | 499 kts | 199° |
| 2026-04-23 18:26 | 46.62513 | 8.97958 | 32207 ft | 473 kts | 199° |
| 2026-04-23 18:26 | 46.59562 | 8.96157 | 32199 ft | 444 kts | 199° |
| 2026-04-23 18:26 | 46.56790 | 8.94471 | 32188 ft | 420 kts | 199° |
| 2026-04-23 18:27 | 46.54165 | 8.92873 | 32187 ft | 397 kts | 199° |
| 2026-04-23 18:27 | 46.51684 | 8.91362 | 32177 ft | 377 kts | 198° |
| 2026-04-23 18:27 | 46.49355 | 8.89947 | 32174 ft | 359 kts | 198° |
| 2026-04-23 18:27 | 46.47087 | 8.88572 | 31775 ft | 354 kts | 198° |
| 2026-04-23 18:28 | 46.44768 | 8.87178 | 30823 ft | 367 kts | 198° |
| 2026-04-23 18:28 | 46.42382 | 8.85735 | 29797 ft | 374 kts | 198° |
| 2026-04-23 18:28 | 46.39959 | 8.84261 | 28803 ft | 381 kts | 199° |
| 2026-04-23 18:28 | 46.37489 | 8.82758 | 27796 ft | 388 kts | 199° |
| 2026-04-23 18:29 | 46.34978 | 8.81244 | 26761 ft | 393 kts | 200° |
| 2026-04-23 18:29 | 46.32436 | 8.79716 | 25724 ft | 397 kts | 200° |
| 2026-04-23 18:29 | 46.29870 | 8.78166 | 24657 ft | 401 kts | 201° |
| 2026-04-23 18:29 | 46.27278 | 8.76599 | 23580 ft | 405 kts | 201° |
| 2026-04-23 18:30 | 46.24687 | 8.75038 | 22490 ft | 402 kts | 201° |
| 2026-04-23 18:30 | 46.22113 | 8.73493 | 21446 ft | 399 kts | 201° |
| 2026-04-23 18:30 | 46.19545 | 8.71958 | 20393 ft | 397 kts | 200° |
| 2026-04-23 18:30 | 46.16885 | 8.70979 | 19357 ft | 393 kts | 185° |
| 2026-04-23 18:31 | 46.14172 | 8.70925 | 18316 ft | 389 kts | 172° |
| 2026-04-23 18:31 | 46.11587 | 8.71743 | 17287 ft | 380 kts | 159° |
| 2026-04-23 18:31 | 46.09221 | 8.73340 | 16304 ft | 371 kts | 146° |
| 2026-04-23 18:31 | 46.07202 | 8.75583 | 15339 ft | 363 kts | 134° |
| 2026-04-23 18:32 | 46.05601 | 8.78322 | 14402 ft | 354 kts | 122° |
| 2026-04-23 18:32 | 46.04235 | 8.81245 | 13444 ft | 351 kts | 126° |
| 2026-04-23 18:32 | 46.02519 | 8.83707 | 12536 ft | 347 kts | 138° |
| 2026-04-23 18:32 | 46.00515 | 8.85611 | 11627 ft | 344 kts | 150° |
| 2026-04-23 18:33 | 45.98287 | 8.86883 | 10584 ft | 345 kts | 163° |
| 2026-04-23 18:33 | 45.96040 | 8.87460 | 9655 ft | 314 kts | 174° |
| 2026-04-23 18:33 | 45.93927 | 8.87429 | 8735 ft | 294 kts | 185° |
| 2026-04-23 18:33 | 45.91913 | 8.86887 | 7855 ft | 296 kts | 195° |
| 2026-04-23 18:34 | 45.89978 | 8.85952 | 6987 ft | 291 kts | 198° |
| 2026-04-23 18:34 | 45.88045 | 8.85152 | 6169 ft | 288 kts | 195° |
| 2026-04-23 18:34 | 45.86198 | 8.84220 | 5301 ft | 283 kts | 209° |
| 2026-04-23 18:34 | 45.84689 | 8.82546 | 4998 ft | 260 kts | 223° |
| 2026-04-23 18:35 | 45.83528 | 8.80742 | 4997 ft | 233 kts | 240° |
| 2026-04-23 18:35 | 45.83045 | 8.78646 | 4989 ft | 212 kts | 258° |
| 2026-04-23 18:35 | 45.82703 | 8.76509 | 5571 ft | 223 kts | 258° |
| 2026-04-23 18:35 | 45.82334 | 8.74271 | 5996 ft | 232 kts | 257° |
| 2026-04-23 18:36 | 45.81542 | 8.72345 | 5982 ft | 222 kts | 223° |
| 2026-04-23 18:36 | 45.80187 | 8.71551 | 5979 ft | 208 kts | 182° |
| 2026-04-23 18:36 | 45.78855 | 8.72132 | 5976 ft | 202 kts | 141° |
| 2026-04-23 18:36 | 45.78176 | 8.73821 | 5983 ft | 199 kts | 97° |
| 2026-04-23 18:37 | 45.78432 | 8.75711 | 5985 ft | 195 kts | 57° |
| 2026-04-23 18:37 | 45.79419 | 8.76993 | 5994 ft | 192 kts | 33° |
| 2026-04-23 18:37 | 45.80517 | 8.78044 | 5994 ft | 192 kts | 33° |
| 2026-04-23 18:37 | 45.81612 | 8.79125 | 6000 ft | 189 kts | 33° |
| 2026-04-23 18:38 | 45.82644 | 8.80144 | 5990 ft | 172 kts | 34° |
| 2026-04-23 18:38 | 45.83600 | 8.81094 | 5988 ft | 160 kts | 33° |
| 2026-04-23 18:38 | 45.84462 | 8.81949 | 5978 ft | 142 kts | 33° |
| 2026-04-23 18:38 | 45.85235 | 8.82720 | 5976 ft | 131 kts | 33° |
| 2026-04-23 18:39 | 45.85990 | 8.83467 | 5971 ft | 135 kts | 33° |
| 2026-04-23 18:39 | 45.86791 | 8.84270 | 5823 ft | 143 kts | 33° |
| 2026-04-23 18:39 | 45.87629 | 8.85021 | 5623 ft | 139 kts | 20° |
| 2026-04-23 18:39 | 45.88533 | 8.85334 | 5443 ft | 131 kts | 14° |
| 2026-04-23 18:40 | 45.89368 | 8.85731 | 5295 ft | 129 kts | 18° |
| 2026-04-23 18:40 | 45.90263 | 8.86126 | 5126 ft | 136 kts | 15° |
| 2026-04-23 18:40 | 45.91151 | 8.86520 | 4932 ft | 137 kts | 18° |
| 2026-04-23 18:40 | 45.92079 | 8.86994 | 4436 ft | 141 kts | 18° |
| 2026-04-23 18:41 | 45.92993 | 8.87435 | 4014 ft | 138 kts | 17° |
| 2026-04-23 18:41 | 45.93906 | 8.87871 | 3596 ft | 136 kts | 17° |
| 2026-04-23 18:41 | 45.94802 | 8.88307 | 3252 ft | 135 kts | 18° |
| 2026-04-23 18:41 | 45.95671 | 8.88735 | 3145 ft | 141 kts | 18° |
| 2026-04-23 18:42 | 45.96558 | 8.89188 | 2773 ft | 127 kts | 18° |
| 2026-04-23 18:42 | 45.97396 | 8.89576 | 2320 ft | 129 kts | 17° |
| 2026-04-23 18:42 | 45.98246 | 8.89976 | 1835 ft | 129 kts | 19° |
| 2026-04-23 18:42 | 45.99076 | 8.90401 | 1367 ft | 125 kts | 20° |
| 2026-04-23 18:43 | 45.99881 | 8.90796 | 947 ft | 119 kts | 17° |
| 2026-04-23 18:43 | 46.00422 | 8.91058 | 920 ft | 11 kts | 19° |
| 2026-04-23 18:43 | 46.00450 | 8.91019 | 922 ft | 9 kts | 289° |
| 2026-04-23 18:43 | 46.00429 | 8.90947 | 918 ft | 11 kts | 199° |
| 2026-04-23 18:44 | 46.00369 | 8.90876 | 918 ft | 13 kts | 268° |
| 2026-04-23 18:44 | 46.00367 | 8.90791 | 918 ft | 0 kts | 268° |